Time;durP1;ratioP1;P1;durP2;ratioP2;P2;SDS_P1;SDS_P2;PMS_P1;PMS_P2;Temp;Humidity;BMP_temperature;BMP_pressure;BME280_temperature;BME280_humidity;BME280_pressure;Samples;Min_cycle;Max_cycle;Signal;HPM_P1;HPM_P2
2023/06/06 00:00:17;;;;;;;4.88;2.17;;;;;;;16.05;64.06;63659.25;5084969;28;20297;-78
2023/06/06 00:02:46;;;;;;;3.35;2.10;;;;;;;16.04;64.37;63660.78;5073296;28;20234;-79
2023/06/06 00:05:14;;;;;;;2.70;2.50;;;;;;;15.91;64.51;63645.22;5084112;28;20369;-78
2023/06/06 00:07:42;;;;;;;4.38;2.42;;;;;;;15.92;64.63;63646.25;5086305;28;20591;-79
2023/06/06 00:10:10;;;;;;;3.40;1.98;;;;;;;15.76;65.27;63624.50;5082085;28;20227;-78
2023/06/06 00:12:38;;;;;;;4.95;2.20;;;;;;;15.62;65.13;63614.53;5086315;28;20536;-78
2023/06/06 00:15:06;;;;;;;6.05;2.10;;;;;;;15.65;65.49;63615.59;5089508;28;20212;-79
2023/06/06 00:17:36;;;;;;;2.13;2.03;;;;;;;15.65;65.55;63620.25;5090807;28;20228;-79
2023/06/06 00:20:08;;;;;;;2.15;1.95;;;;;;;15.54;64.27;63609.31;5075806;28;20204;-78
2023/06/06 00:22:36;;;;;;;3.83;2.10;;;;;;;15.45;65.29;63599.44;5087891;28;20624;-78
2023/06/06 00:25:04;;;;;;;3.03;2.40;;;;;;;15.43;65.49;63594.81;5089030;28;20196;-80
2023/06/06 00:27:32;;;;;;;2.00;1.90;;;;;;;15.33;65.98;63587.47;5086198;28;20255;-78
2023/06/06 00:29:59;;;;;;;2.08;1.95;;;;;;;15.28;66.91;63579.72;5087148;28;20236;-78
2023/06/06 00:32:27;;;;;;;2.75;1.90;;;;;;;15.17;68.08;63565.69;5089925;28;20223;-78
2023/06/06 00:34:56;;;;;;;2.08;1.98;;;;;;;15.17;68.18;63562.63;5086275;28;20216;-79
2023/06/06 00:37:23;;;;;;;1.98;1.63;;;;;;;15.11;69.77;63553.81;5086873;28;20224;-78
2023/06/06 00:39:50;;;;;;;3.20;2.10;;;;;;;15.04;69.46;63547.06;5090396;28;20196;-76
2023/06/06 00:42:17;;;;;;;3.67;2.00;;;;;;;14.95;69.37;63542.84;5086999;28;20240;-77
2023/06/06 00:44:45;;;;;;;4.43;2.35;;;;;;;14.92;69.84;63550.00;5088149;28;20208;-79
2023/06/06 00:47:13;;;;;;;1.95;1.85;;;;;;;14.87;70.16;63540.19;5088526;28;20250;-78
2023/06/06 00:49:42;;;;;;;2.40;2.20;;;;;;;14.79;70.91;63524.19;5085929;28;20425;-77
2023/06/06 00:52:10;;;;;;;1.98;1.88;;;;;;;14.81;70.86;63533.94;5088153;28;20232;-78
2023/06/06 00:54:38;;;;;;;4.22;1.90;;;;;;;14.69;71.26;63521.47;5087046;28;20216;-78
2023/06/06 00:57:09;;;;;;;1.90;1.80;;;;;;;14.61;72.43;63508.06;5089134;28;20217;-79
2023/06/06 00:59:39;;;;;;;2.10;2.00;;;;;;;14.74;71.58;63521.03;5081118;28;20201;-78
2023/06/06 01:02:10;;;;;;;3.63;1.98;;;;;;;14.68;71.57;63514.81;5089176;28;20231;-80
2023/06/06 01:04:40;;;;;;;6.35;1.67;;;;;;;14.62;70.99;63506.00;5087119;28;20205;-79
2023/06/06 01:07:09;;;;;;;2.20;1.75;;;;;;;14.60;71.11;63512.13;5088271;28;20295;-79
2023/06/06 01:09:38;;;;;;;2.67;2.22;;;;;;;14.52;70.83;63500.75;5087556;28;20204;-78
2023/06/06 01:12:13;;;;;;;5.70;2.03;;;;;;;14.55;71.44;63501.28;5088446;28;20251;-79
2023/06/06 01:14:50;;;;;;;1.70;1.60;;;;;;;14.60;71.40;63509.06;5084880;28;20237;-79
2023/06/06 01:17:19;;;;;;;1.65;1.48;;;;;;;14.62;70.84;63516.25;5089761;28;20238;-79
2023/06/06 01:19:49;;;;;;;2.15;2.05;;;;;;;14.51;71.69;63497.16;5087459;28;20271;-79
2023/06/06 01:22:22;;;;;;;1.90;1.75;;;;;;;14.58;71.36;63504.91;5072843;28;20228;-78
2023/06/06 01:24:53;;;;;;;7.57;1.92;;;;;;;14.55;70.89;63501.81;5088166;28;20193;-79
2023/06/06 01:27:22;;;;;;;7.93;1.65;;;;;;;14.45;70.75;63496.03;5068996;28;20229;-79
2023/06/06 01:29:49;;;;;;;6.68;2.13;;;;;;;14.40;71.04;63488.81;5077345;28;20196;-78
2023/06/06 01:32:22;;;;;;;5.22;1.80;;;;;;;14.34;72.38;63479.50;5086499;28;20292;-79
2023/06/06 01:34:55;;;;;;;4.28;1.42;;;;;;;14.42;71.56;63488.31;5088067;28;20200;-80
2023/06/06 01:37:35;;;;;;;2.92;2.38;;;;;;;14.41;72.52;63482.16;5086901;28;20220;-79
2023/06/06 01:40:06;;;;;;;3.17;1.90;;;;;;;14.46;71.92;63492.47;5083595;28;20299;-78
2023/06/06 01:42:37;;;;;;;3.17;1.65;;;;;;;14.41;71.74;63484.72;5087098;28;20220;-79
2023/06/06 01:45:06;;;;;;;1.50;1.40;;;;;;;14.47;71.14;63492.97;5090261;28;20211;-78
2023/06/06 01:47:34;;;;;;;2.13;1.85;;;;;;;14.46;70.35;63491.94;5086504;28;20310;-80
2023/06/06 01:50:04;;;;;;;1.80;1.65;;;;;;;14.61;67.09;63502.41;5086079;28;20201;-77
2023/06/06 01:52:36;;;;;;;3.08;1.48;;;;;;;14.76;67.01;63520.53;5086293;28;20279;-78
2023/06/06 01:55:03;;;;;;;1.70;1.38;;;;;;;14.78;66.08;63525.72;5087159;28;20294;-78
2023/06/06 01:57:30;;;;;;;2.25;1.75;;;;;;;14.88;66.16;63533.53;5087991;28;20259;-79
2023/06/06 01:59:58;;;;;;;1.75;1.60;;;;;;;14.89;65.41;63539.19;5085929;28;20408;-79
2023/06/06 02:02:25;;;;;;;2.03;1.30;;;;;;;14.97;64.95;63548.00;5085862;28;20246;-79
2023/06/06 02:04:52;;;;;;;1.48;1.38;;;;;;;15.04;65.22;63557.84;5086670;28;20203;-78
2023/06/06 02:07:19;;;;;;;1.25;0.95;;;;;;;15.10;64.60;63565.63;5086953;28;20246;-78
2023/06/06 02:09:47;;;;;;;1.60;1.50;;;;;;;15.17;63.46;63562.63;5080327;28;20699;-78
2023/06/06 02:12:14;;;;;;;3.38;1.35;;;;;;;15.17;63.35;63567.75;5086493;28;20224;-78
2023/06/06 02:14:41;;;;;;;1.95;1.30;;;;;;;15.19;62.68;63567.78;5087657;28;20241;-78
2023/06/06 02:17:08;;;;;;;3.80;1.50;;;;;;;15.22;62.32;63576.03;5083750;28;20224;-78
2023/06/06 02:19:35;;;;;;;1.75;1.60;;;;;;;15.13;63.03;63559.00;5085787;28;20204;-78
2023/06/06 02:22:03;;;;;;;1.48;1.40;;;;;;;15.16;63.37;63561.56;5087043;28;20239;-79
2023/06/06 02:24:30;;;;;;;2.40;1.48;;;;;;;15.17;62.99;63563.13;5085670;28;20213;-78
2023/06/06 02:26:59;;;;;;;1.85;1.58;;;;;;;15.22;62.92;63575.53;5081993;28;20244;-79
2023/06/06 02:29:26;;;;;;;1.48;1.38;;;;;;;15.17;62.97;63568.25;5087485;28;20203;-79
2023/06/06 02:31:54;;;;;;;7.22;1.77;;;;;;;15.14;63.01;63565.16;5087322;28;20231;-79
2023/06/06 02:34:24;;;;;;;3.40;1.50;;;;;;;15.00;63.78;63553.16;5084297;28;20212;-79
2023/06/06 02:36:53;;;;;;;2.83;1.40;;;;;;;14.94;63.52;63542.31;5085882;28;20232;-78
2023/06/06 02:39:20;;;;;;;1.77;1.67;;;;;;;14.80;64.55;63529.84;5086284;28;20208;-79
2023/06/06 02:41:47;;;;;;;3.78;1.73;;;;;;;14.72;64.64;63516.91;5077976;28;20216;-77
2023/06/06 02:44:17;;;;;;;1.42;1.30;;;;;;;14.49;65.47;63497.63;5086059;28;20207;-78
2023/06/06 02:46:44;;;;;;;1.40;1.30;;;;;;;14.36;66.13;63484.63;5086537;28;20243;-78
2023/06/06 02:49:11;;;;;;;1.77;1.67;;;;;;;14.29;67.02;63471.75;5086744;28;20350;-78
2023/06/06 02:51:38;;;;;;;2.65;1.52;;;;;;;14.26;67.45;63469.13;5087001;28;20233;-78
2023/06/06 02:54:06;;;;;;;2.40;2.20;;;;;;;14.25;67.93;63467.56;5084677;28;20204;-78
2023/06/06 02:56:33;;;;;;;1.73;1.60;;;;;;;14.23;67.60;63471.13;5085703;28;20213;-78
2023/06/06 02:59:00;;;;;;;1.83;1.25;;;;;;;14.18;68.35;63462.84;5084200;28;20201;-79
2023/06/06 03:01:30;;;;;;;2.40;1.27;;;;;;;14.20;68.04;63464.94;5078472;28;20440;-79
2023/06/06 03:03:58;;;;;;;1.65;1.55;;;;;;;14.13;68.42;63460.22;5086686;28;20376;-78
2023/06/06 03:06:28;;;;;;;2.55;1.60;;;;;;;14.24;68.86;63469.06;5093174;28;20218;-78
2023/06/06 03:08:57;;;;;;;1.70;1.60;;;;;;;14.21;71.70;63468.53;5104559;28;20196;-78
2023/06/06 03:11:25;;;;;;;2.53;2.33;;;;;;;14.09;74.70;63459.16;5090336;28;20293;-79
2023/06/06 03:13:53;;;;;;;2.33;2.08;;;;;;;14.11;75.33;63460.69;5085446;28;20553;-78
2023/06/06 03:16:20;;;;;;;4.15;2.00;;;;;;;14.15;74.90;63459.75;5086561;28;20216;-79
2023/06/06 03:18:50;;;;;;;3.65;1.83;;;;;;;14.16;75.14;63463.84;5089672;28;20216;-79
2023/06/06 03:21:17;;;;;;;1.67;1.58;;;;;;;14.20;75.09;63470.56;5086660;28;20216;-78
2023/06/06 03:23:44;;;;;;;1.85;1.75;;;;;;;14.09;77.74;63456.06;5085821;28;20201;-77
2023/06/06 03:26:11;;;;;;;4.20;1.75;;;;;;;14.12;78.95;63456.59;5086651;28;20196;-78
2023/06/06 03:28:38;;;;;;;1.90;1.60;;;;;;;14.27;79.24;63477.34;5085035;28;20212;-79
2023/06/06 03:31:06;;;;;;;2.17;1.90;;;;;;;14.35;81.75;63477.97;5084312;28;20231;-80
2023/06/06 03:33:33;;;;;;;5.55;2.10;;;;;;;14.40;81.08;63488.28;5088827;28;20197;-78
2023/06/06 03:36:02;;;;;;;3.40;2.40;;;;;;;14.51;78.11;63500.22;5086625;28;20442;-78
2023/06/06 03:38:30;;;;;;;3.78;2.00;;;;;;;14.62;75.82;63509.09;5074029;28;20262;-78
2023/06/06 03:40:57;;;;;;;2.20;1.83;;;;;;;14.70;73.67;63522.50;5075449;28;20248;-77
2023/06/06 03:43:24;;;;;;;1.83;1.73;;;;;;;14.82;73.13;63532.41;5087960;28;20263;-77
2023/06/06 03:45:51;;;;;;;2.10;2.00;;;;;;;14.71;76.34;63518.44;5081750;28;20374;-79
2023/06/06 03:48:18;;;;;;;4.88;2.10;;;;;;;14.83;76.79;63527.81;5089306;28;20254;-79
2023/06/06 03:50:45;;;;;;;5.00;1.88;;;;;;;14.94;79.17;63539.75;5089815;28;20212;-78
2023/06/06 03:53:13;;;;;;;2.13;2.03;;;;;;;15.12;79.79;63560.50;5089735;28;20341;-79
2023/06/06 03:55:41;;;;;;;4.10;2.22;;;;;;;15.26;79.67;63572.50;5087492;28;20196;-79
2023/06/06 03:58:08;;;;;;;5.70;2.58;;;;;;;15.33;76.27;63584.91;5092101;28;20223;-78
2023/06/06 04:00:36;;;;;;;3.28;2.53;;;;;;;15.48;75.11;63603.06;5074939;28;20200;-79
2023/06/06 04:03:03;;;;;;;3.33;2.90;;;;;;;15.64;74.49;63614.06;5084477;28;20412;-79
2023/06/06 04:05:32;;;;;;;3.97;2.40;;;;;;;15.81;72.35;63634.81;5086286;28;20271;-79
2023/06/06 04:08:00;;;;;;;2.78;2.50;;;;;;;15.92;70.93;63646.25;5073644;28;20217;-78
2023/06/06 04:10:28;;;;;;;2.40;2.13;;;;;;;16.06;69.91;63657.72;5072430;28;20451;-77
2023/06/06 04:12:55;;;;;;;7.82;2.22;;;;;;;15.84;67.62;63637.44;5087262;28;20228;-77
2023/06/06 04:15:22;;;;;;;3.15;2.35;;;;;;;15.74;68.57;63624.44;5082204;28;20224;-79
2023/06/06 04:17:49;;;;;;;4.32;2.20;;;;;;;15.86;67.46;63636.91;5082067;28;20227;-77
2023/06/06 04:20:16;;;;;;;2.83;2.63;;;;;;;15.67;70.15;63617.69;5090772;28;20231;-78
2023/06/06 04:22:44;;;;;;;3.30;2.58;;;;;;;15.78;69.84;63628.63;5088207;28;20259;-78
2023/06/06 04:25:12;;;;;;;2.17;2.03;;;;;;;15.82;68.89;63632.78;5086250;28;20250;-77
2023/06/06 04:27:44;;;;;;;2.67;2.40;;;;;;;15.87;68.35;63635.94;5088006;28;20291;-79
2023/06/06 04:30:13;;;;;;;4.57;2.38;;;;;;;15.93;68.68;63644.19;5089214;28;20220;-78
2023/06/06 04:32:40;;;;;;;2.13;2.03;;;;;;;15.69;69.77;63621.81;5084618;28;20232;-76
2023/06/06 04:35:11;;;;;;;3.58;2.45;;;;;;;15.69;70.60;63619.25;5082418;28;20247;-77
2023/06/06 04:37:39;;;;;;;6.15;2.58;;;;;;;15.78;70.39;63629.13;5083395;28;20242;-77
2023/06/06 04:40:10;;;;;;;2.80;2.22;;;;;;;15.81;69.11;63632.25;5086480;28;20512;-78
2023/06/06 04:42:39;;;;;;;1.15;1.15;;;;;;;16.01;62.63;63655.59;5079516;28;20219;-78
2023/06/06 04:45:09;;;;;;;3.25;1.30;;;;;;;16.06;64.79;63657.72;5090545;28;20195;-77
2023/06/06 04:47:37;;;;;;;3.35;1.10;;;;;;;16.09;65.50;63666.00;5088834;28;20216;-78
2023/06/06 04:50:06;;;;;;;1.90;1.00;;;;;;;16.18;64.77;63670.75;5086337;28;20483;-80
2023/06/06 04:52:34;;;;;;;3.25;1.38;;;;;;;16.22;63.10;63676.44;5086217;28;20228;-78
2023/06/06 04:55:04;;;;;;;4.28;1.52;;;;;;;16.45;63.27;63700.88;5088936;28;20215;-80
2023/06/06 04:57:33;;;;;;;1.48;1.38;;;;;;;16.57;62.56;63712.84;5088063;28;20216;-78
2023/06/06 05:00:01;;;;;;;1.80;1.33;;;;;;;16.79;63.09;63735.75;5080144;28;20197;-78
2023/06/06 05:02:29;;;;;;;2.10;1.23;;;;;;;17.03;63.58;63761.22;5089572;28;20223;-78
2023/06/06 05:04:58;;;;;;;7.30;1.90;;;;;;;17.20;60.28;63781.50;5088852;28;20192;-79
2023/06/06 05:07:25;;;;;;;1.52;1.42;;;;;;;17.31;59.92;63787.28;5085494;28;20220;-78
2023/06/06 05:09:52;;;;;;;2.35;1.63;;;;;;;17.61;60.22;63818.56;5083658;28;20317;-78
2023/06/06 05:12:19;;;;;;;1.58;1.48;;;;;;;17.77;59.79;63837.28;5086646;28;20227;-79
2023/06/06 05:14:46;;;;;;;3.88;1.63;;;;;;;17.87;57.69;63850.78;5086679;28;20196;-78
2023/06/06 05:17:17;;;;;;;1.52;1.42;;;;;;;17.86;57.64;63844.56;5090744;28;20272;-77
2023/06/06 05:19:46;;;;;;;4.80;2.10;;;;;;;18.18;58.08;63874.81;5088047;28;20180;-79
2023/06/06 05:22:14;;;;;;;1.17;1.17;;;;;;;18.38;56.82;63895.66;5066857;28;20213;-79
2023/06/06 05:24:42;;;;;;;1.67;1.30;;;;;;;18.59;55.10;63917.56;5068554;28;20201;-79
2023/06/06 05:27:09;;;;;;;1.40;1.35;;;;;;;18.65;54.21;63931.03;5067662;28;20220;-79
2023/06/06 05:29:37;;;;;;;2.00;1.35;;;;;;;18.62;54.63;63925.84;5075924;28;20196;-78
2023/06/06 05:32:05;;;;;;;1.42;1.38;;;;;;;18.57;54.78;63922.69;5089061;28;20239;-79
2023/06/06 05:34:34;;;;;;;1.20;1.10;;;;;;;18.56;54.51;63919.06;5089504;28;20227;-80
2023/06/06 05:37:04;;;;;;;1.30;1.30;;;;;;;18.61;54.13;63927.38;5087513;28;20216;-80
2023/06/06 05:39:31;;;;;;;0.90;0.90;;;;;;;18.77;53.88;63941.47;5088380;28;20203;-78
2023/06/06 05:41:57;;;;;;;1.90;1.45;;;;;;;18.99;54.59;63959.25;5089763;28;20283;-79
2023/06/06 05:44:24;;;;;;;1.85;1.50;;;;;;;19.13;53.69;63978.50;5088104;28;20442;-79
2023/06/06 05:46:55;;;;;;;4.28;1.25;;;;;;;18.98;53.67;63962.84;5090406;28;20220;-78
2023/06/06 05:49:22;;;;;;;1.58;1.48;;;;;;;19.04;53.75;63972.22;5088335;28;20255;-78
2023/06/06 05:51:49;;;;;;;1.52;1.40;;;;;;;19.05;54.01;63965.00;5088086;28;20259;-78
2023/06/06 05:54:18;;;;;;;4.15;2.40;;;;;;;19.15;54.54;63983.16;5086921;28;20196;-79
2023/06/06 05:56:45;;;;;;;6.65;1.42;;;;;;;19.28;54.49;63997.22;5087634;28;20266;-78
2023/06/06 05:59:13;;;;;;;2.33;1.83;;;;;;;19.45;54.02;64009.28;5091939;28;20195;-78
2023/06/06 06:01:41;;;;;;;3.00;1.55;;;;;;;19.52;53.95;64019.69;5087743;28;20275;-79
2023/06/06 06:04:08;;;;;;;1.63;1.20;;;;;;;19.06;54.08;63971.72;5089906;28;20197;-77
2023/06/06 06:06:37;;;;;;;2.05;1.95;;;;;;;18.71;55.29;63926.97;5086693;28;20225;-77
2023/06/06 06:09:05;;;;;;;1.48;1.38;;;;;;;18.86;56.34;63947.75;5086913;28;20235;-79
2023/06/06 06:11:33;;;;;;;3.33;1.65;;;;;;;19.01;55.41;63969.09;5085417;28;20275;-79
2023/06/06 06:14:00;;;;;;;1.48;1.38;;;;;;;19.11;55.14;63976.94;5087956;28;20196;-78
2023/06/06 06:16:27;;;;;;;3.10;1.98;;;;;;;19.07;54.12;63969.66;5086889;28;20216;-77
2023/06/06 06:18:53;;;;;;;1.90;1.80;;;;;;;18.56;55.88;63919.06;5088248;28;20478;-78
2023/06/06 06:21:21;;;;;;;3.28;1.60;;;;;;;18.41;57.44;63904.47;5073166;28;20224;-79
2023/06/06 06:23:49;;;;;;;2.35;1.25;;;;;;;18.43;56.24;63906.03;5067226;28;20208;-77
2023/06/06 06:26:16;;;;;;;2.05;1.95;;;;;;;18.49;57.60;63909.72;5066425;28;20220;-79
2023/06/06 06:28:44;;;;;;;5.63;1.85;;;;;;;18.68;58.60;63931.56;5067006;28;20443;-77
2023/06/06 06:31:11;;;;;;;1.50;1.40;;;;;;;18.90;57.70;63951.91;5070351;28;20197;-79
2023/06/06 06:33:39;;;;;;;3.85;1.52;;;;;;;19.07;55.85;63972.25;5066382;28;20239;-79
2023/06/06 06:36:06;;;;;;;1.45;1.38;;;;;;;19.20;54.70;63985.78;5065817;28;20196;-77
2023/06/06 06:38:33;;;;;;;1.55;1.45;;;;;;;19.19;55.51;63984.75;5068424;28;20276;-78
2023/06/06 06:41:01;;;;;;;2.13;1.58;;;;;;;19.37;55.96;64000.94;5066508;28;20227;-79
2023/06/06 06:43:28;;;;;;;3.08;1.45;;;;;;;19.61;55.12;64023.41;5068158;28;20267;-79
2023/06/06 06:45:57;;;;;;;4.10;1.85;;;;;;;19.81;53.83;64048.91;5068535;28;20197;-79
2023/06/06 06:48:24;;;;;;;1.67;1.58;;;;;;;19.43;55.29;64010.31;5067679;28;20196;-77
2023/06/06 06:50:52;;;;;;;2.75;1.30;;;;;;;19.32;55.82;63998.31;5066787;28;20435;-76
2023/06/06 06:53:19;;;;;;;10.30;1.65;;;;;;;19.24;56.17;63984.81;5065539;28;20239;-78
2023/06/06 06:55:46;;;;;;;1.60;1.50;;;;;;;19.17;53.66;63985.75;5067750;28;20197;-78
2023/06/06 06:58:22;;;;;;;3.40;1.42;;;;;;;19.46;53.66;64015.50;5067074;28;20259;-78
2023/06/06 07:00:50;;;;;;;2.10;1.90;;;;;;;19.76;53.80;64039.03;5067637;28;20241;-78
2023/06/06 07:03:19;;;;;;;2.20;2.00;;;;;;;19.69;54.64;64038.97;5065425;28;20220;-79
2023/06/06 07:05:46;;;;;;;2.03;1.52;;;;;;;19.71;55.00;64033.31;5066070;28;20207;-78
2023/06/06 07:08:13;;;;;;;2.13;1.83;;;;;;;20.00;53.71;64066.66;5066351;28;20220;-78
2023/06/06 07:10:40;;;;;;;3.67;1.48;;;;;;;20.00;54.11;64071.81;5066996;28;20188;-78
2023/06/06 07:13:07;;;;;;;1.92;1.70;;;;;;;19.98;54.21;64069.22;5065627;28;20260;-78
2023/06/06 07:15:37;;;;;;;2.63;1.75;;;;;;;20.18;51.70;64088.06;5068591;28;20197;-78
2023/06/06 07:18:05;;;;;;;3.97;1.90;;;;;;;19.99;51.53;64065.09;5065240;28;20243;-78
2023/06/06 07:20:33;;;;;;;1.73;1.63;;;;;;;19.75;52.45;64040.59;5071565;28;20195;-77
2023/06/06 07:23:01;;;;;;;3.75;2.00;;;;;;;19.98;53.83;64067.16;5084781;28;20233;-79
2023/06/06 07:25:29;;;;;;;1.90;1.35;;;;;;;20.32;52.95;64102.13;5086216;28;20196;-78
2023/06/06 07:27:58;;;;;;;2.85;1.83;;;;;;;20.59;52.58;64128.25;5088694;28;20239;-78
2023/06/06 07:30:25;;;;;;;2.15;1.85;;;;;;;20.65;52.44;64136.59;5073713;28;20379;-78
2023/06/06 07:32:52;;;;;;;2.08;1.60;;;;;;;20.89;52.50;64161.63;5067413;28;20259;-79
2023/06/06 07:35:20;;;;;;;3.30;2.08;;;;;;;20.75;50.31;64147.03;5065003;28;20264;-76
2023/06/06 07:37:48;;;;;;;2.90;1.70;;;;;;;20.50;50.33;64118.34;5064902;28;20408;-76
2023/06/06 07:40:18;;;;;;;1.88;1.77;;;;;;;20.59;51.67;64135.50;5066758;28;20193;-78
2023/06/06 07:42:47;;;;;;;2.20;2.08;;;;;;;20.78;52.61;64150.16;5070635;28;20230;-76
2023/06/06 07:45:14;;;;;;;2.38;1.92;;;;;;;21.01;50.29;64174.19;5065969;28;20223;-77
2023/06/06 07:47:41;;;;;;;4.05;2.10;;;;;;;21.14;50.55;64185.16;5065859;28;20228;-76
2023/06/06 07:50:09;;;;;;;2.30;1.48;;;;;;;21.27;49.75;64200.81;5066401;28;20256;-77
2023/06/06 07:52:43;;;;;;;2.03;1.92;;;;;;;21.34;49.58;64208.66;5065522;28;20247;-77
2023/06/06 07:55:12;;;;;;;3.25;1.88;;;;;;;21.34;49.69;64213.31;5066093;28;20189;-77
2023/06/06 07:57:40;;;;;;;1.77;1.55;;;;;;;21.32;49.96;64203.44;5069037;28;20559;-79
2023/06/06 08:00:10;;;;;;;1.92;1.83;;;;;;;21.63;49.15;64238.94;5065065;28;20434;-78
2023/06/06 08:02:37;;;;;;;2.90;2.10;;;;;;;21.62;48.28;64242.56;5066161;28;20221;-78
2023/06/06 08:05:05;;;;;;;5.85;1.88;;;;;;;21.52;49.93;64224.84;5066625;28;20197;-79
2023/06/06 08:07:35;;;;;;;3.10;2.20;;;;;;;21.58;49.54;64236.31;5066328;28;20517;-79
2023/06/06 08:10:02;;;;;;;2.22;2.05;;;;;;;21.56;48.92;64229.03;5066163;28;20263;-78
2023/06/06 08:12:30;;;;;;;1.80;1.70;;;;;;;21.55;50.12;64232.66;5064913;28;20232;-77
2023/06/06 08:14:58;;;;;;;2.28;1.80;;;;;;;21.59;49.26;64229.59;5067224;28;20231;-78
2023/06/06 08:17:25;;;;;;;2.35;1.98;;;;;;;21.44;48.37;64218.56;5065229;28;20220;-78
2023/06/06 08:19:52;;;;;;;10.27;3.53;;;;;;;21.35;48.93;64209.16;5066502;28;20516;-77
2023/06/06 08:22:19;;;;;;;1.80;1.70;;;;;;;21.15;49.85;64186.22;5085999;28;20529;-77
2023/06/06 08:24:46;;;;;;;2.05;1.85;;;;;;;21.34;50.21;64208.66;5085622;28;20221;-78
2023/06/06 08:27:14;;;;;;;2.90;1.98;;;;;;;21.44;49.43;64215.97;5086492;28;20224;-78
2023/06/06 08:29:42;;;;;;;2.30;2.03;;;;;;;21.42;49.23;64211.28;5079475;28;20243;-79
2023/06/06 08:32:12;;;;;;;11.73;2.40;;;;;;;21.53;50.15;64227.97;5065807;28;20599;-76
2023/06/06 08:34:39;;;;;;;4.80;2.10;;;;;;;21.49;51.18;64224.31;5068444;28;20204;-77
2023/06/06 08:37:06;;;;;;;2.47;2.28;;;;;;;21.45;50.20;64214.94;5069520;28;20217;-80
2023/06/06 08:39:33;;;;;;;3.08;2.42;;;;;;;21.58;48.45;64238.91;5069081;28;20197;-79
2023/06/06 08:42:00;;;;;;;3.40;2.00;;;;;;;21.69;50.05;64245.22;5068944;28;20278;-77
2023/06/06 08:44:27;;;;;;;2.33;2.13;;;;;;;21.70;49.07;64243.66;5069876;28;20381;-76
2023/06/06 08:46:58;;;;;;;2.67;2.05;;;;;;;21.66;48.84;64239.47;5069756;28;20250;-77
2023/06/06 08:49:28;;;;;;;4.13;1.95;;;;;;;21.87;48.57;64263.00;5068755;28;20188;-79
2023/06/06 08:51:56;;;;;;;2.83;2.05;;;;;;;21.91;48.56;64267.19;5068961;28;20279;-78
2023/06/06 08:54:23;;;;;;;5.15;2.47;;;;;;;21.76;48.81;64252.00;5068690;28;20231;-78
2023/06/06 08:56:53;;;;;;;2.38;2.20;;;;;;;21.94;50.55;64268.25;5070869;28;20216;-79
2023/06/06 08:59:22;;;;;;;2.10;2.00;;;;;;;22.20;51.90;64297.47;5069940;28;20204;-81
2023/06/06 09:01:51;;;;;;;2.38;2.20;;;;;;;22.00;50.47;64276.59;5070427;28;20217;-79
2023/06/06 09:04:20;;;;;;;2.30;2.20;;;;;;;22.18;50.76;64290.19;5069116;28;20200;-78
2023/06/06 09:06:50;;;;;;;2.80;2.60;;;;;;;22.31;49.74;64308.97;5068937;28;20557;-78
2023/06/06 09:09:20;;;;;;;2.13;2.03;;;;;;;22.00;48.83;64274.00;5069903;28;20197;-78
2023/06/06 09:11:47;;;;;;;2.42;2.33;;;;;;;22.07;51.17;64286.50;5068533;28;20224;-79
2023/06/06 09:14:14;;;;;;;2.80;2.33;;;;;;;22.15;51.06;64300.03;5069547;28;20239;-78
2023/06/06 09:16:42;;;;;;;2.65;2.28;;;;;;;22.13;49.61;64293.28;5068423;28;20221;-79
2023/06/06 09:19:10;;;;;;;2.55;2.45;;;;;;;22.28;50.10;64303.25;5068966;28;20201;-79
2023/06/06 09:21:39;;;;;;;2.83;2.70;;;;;;;22.19;51.42;64294.38;5085928;28;20230;-78
2023/06/06 09:24:07;;;;;;;2.40;2.30;;;;;;;22.40;51.61;64318.41;5088224;28;20222;-79
2023/06/06 09:26:35;;;;;;;2.95;2.47;;;;;;;22.49;51.13;64327.78;5089410;28;20444;-78
2023/06/06 09:29:08;;;;;;;3.25;2.75;;;;;;;22.50;49.36;64328.84;5088233;28;20188;-79
2023/06/06 09:31:38;;;;;;;4.70;2.80;;;;;;;22.62;50.81;64344.00;5070756;28;20243;-78
2023/06/06 09:34:07;;;;;;;2.72;2.55;;;;;;;22.67;49.23;64341.97;5068557;28;20232;-80
2023/06/06 09:36:35;;;;;;;3.15;2.72;;;;;;;22.78;51.01;64358.66;5069122;28;20287;-79
2023/06/06 09:39:11;;;;;;;2.80;2.60;;;;;;;22.96;51.13;64376.44;5069409;28;20293;-79
2023/06/06 09:41:42;;;;;;;2.20;2.10;;;;;;;22.88;50.50;64368.59;5068276;28;20379;-77
2023/06/06 09:44:19;;;;;;;2.63;2.45;;;;;;;22.96;49.72;64379.56;5070339;28;20264;-78
2023/06/06 09:46:46;;;;;;;2.95;2.72;;;;;;;23.09;50.42;64387.94;5069639;28;20220;-80
2023/06/06 09:49:14;;;;;;;2.58;2.38;;;;;;;23.20;49.29;64401.53;5067956;28;20196;-81
2023/06/06 09:51:42;;;;;;;2.80;2.67;;;;;;;23.38;49.44;64420.91;5067904;28;20204;-79
2023/06/06 09:54:11;;;;;;;3.80;2.38;;;;;;;23.54;48.69;64437.66;5068014;28;20224;-78
2023/06/06 09:56:40;;;;;;;4.15;2.88;;;;;;;23.74;50.72;64455.97;5068522;28;20288;-78
2023/06/06 09:59:08;;;;;;;3.88;2.75;;;;;;;23.72;49.92;64453.34;5069254;28;20205;-78
2023/06/06 10:01:38;;;;;;;2.63;2.22;;;;;;;23.58;50.94;64438.72;5070331;28;20220;-81
2023/06/06 10:04:06;;;;;;;3.67;2.85;;;;;;;23.78;49.45;64460.16;5068135;28;20446;-76
2023/06/06 10:06:34;;;;;;;2.92;2.83;;;;;;;23.74;50.41;64460.66;5067408;28;20243;-77
2023/06/06 10:09:04;;;;;;;3.55;2.83;;;;;;;23.81;48.40;64465.91;5069009;28;20243;-78
2023/06/06 10:11:33;;;;;;;3.17;2.83;;;;;;;24.04;49.34;64481.16;5068655;28;20231;-78
2023/06/06 10:14:02;;;;;;;3.38;3.08;;;;;;;24.15;47.84;64503.06;5069436;28;20240;-80
2023/06/06 10:16:31;;;;;;;2.25;2.15;;;;;;;24.25;49.61;64503.63;5068183;28;20211;-80
2023/06/06 10:18:58;;;;;;;2.55;2.35;;;;;;;24.30;48.39;64514.06;5067324;28;20200;-79
2023/06/06 10:21:28;;;;;;;3.53;2.53;;;;;;;24.44;49.14;64528.22;5068062;28;20538;-79
2023/06/06 10:23:55;;;;;;;5.53;2.35;;;;;;;24.57;47.44;64544.44;5070401;28;20213;-78
2023/06/06 10:26:27;;;;;;;2.83;2.63;;;;;;;24.08;47.97;64491.06;5068676;28;20259;-79
2023/06/06 10:29:05;;;;;;;2.40;2.28;;;;;;;24.23;48.42;64511.94;5071161;28;20279;-79
2023/06/06 10:31:38;;;;;;;2.25;2.15;;;;;;;24.16;51.24;64504.63;5088284;28;20216;-78
2023/06/06 10:34:09;;;;;;;2.35;2.20;;;;;;;24.47;52.47;64537.06;5088415;28;20232;-78
2023/06/06 10:36:43;;;;;;;2.50;2.30;;;;;;;24.79;51.17;64564.88;5087075;28;20222;-79
2023/06/06 10:39:17;;;;;;;2.90;2.63;;;;;;;25.12;47.69;64602.06;5090212;28;20463;-79
2023/06/06 10:41:51;;;;;;;2.05;1.95;;;;;;;25.39;47.48;64629.81;5088749;28;20274;-80
2023/06/06 10:44:25;;;;;;;2.20;2.00;;;;;;;25.40;44.58;64633.50;5089524;28;20204;-79
2023/06/06 10:46:52;;;;;;;5.05;2.05;;;;;;;24.86;44.24;64572.75;5088784;28;20219;-77
2023/06/06 10:49:20;;;;;;;2.28;2.08;;;;;;;24.66;46.64;64553.88;5087223;28;20192;-76
2023/06/06 10:51:48;;;;;;;3.53;2.20;;;;;;;24.57;45.68;64544.97;5086012;28;20224;-79
2023/06/06 10:54:20;;;;;;;3.55;2.60;;;;;;;24.59;48.26;64549.13;5089271;28;20231;-79
2023/06/06 10:56:51;;;;;;;3.08;2.72;;;;;;;24.70;47.37;64563.78;5086666;28;20224;-80
2023/06/06 10:59:21;;;;;;;2.50;2.30;;;;;;;24.84;50.38;64570.13;5086745;28;20216;-79
2023/06/06 11:01:49;;;;;;;4.07;2.92;;;;;;;25.04;46.56;64594.19;5089143;28;20216;-79
2023/06/06 11:04:21;;;;;;;4.32;2.80;;;;;;;25.39;49.73;64624.59;5088506;28;20531;-79
2023/06/06 11:06:50;;;;;;;2.30;2.20;;;;;;;25.45;49.26;64636.66;5086882;28;20239;-79
2023/06/06 11:09:22;;;;;;;2.50;2.40;;;;;;;25.35;47.64;64626.13;5089045;28;20200;-77
2023/06/06 11:11:51;;;;;;;2.70;2.25;;;;;;;25.49;48.84;64640.31;5088839;28;20250;-78
2023/06/06 11:14:22;;;;;;;2.92;2.72;;;;;;;25.75;48.02;64668.06;5086776;28;20235;-79
2023/06/06 11:17:02;;;;;;;2.40;2.30;;;;;;;25.91;48.43;64682.25;5088824;28;20222;-79
2023/06/06 11:19:37;;;;;;;2.13;2.03;;;;;;;26.15;48.80;64704.81;5087020;28;20211;-79
2023/06/06 11:22:04;;;;;;;2.40;2.20;;;;;;;26.20;45.87;64712.66;5071207;28;20219;-79
2023/06/06 11:24:37;;;;;;;2.80;2.47;;;;;;;26.48;46.16;64744.09;5070457;28;20261;-79
2023/06/06 11:27:07;;;;;;;4.45;2.20;;;;;;;26.52;44.20;64748.31;5067744;28;20228;-79
2023/06/06 11:29:34;;;;;;;3.10;2.75;;;;;;;26.42;43.18;64742.50;5072293;28;20433;-78
2023/06/06 11:32:04;;;;;;;2.42;2.30;;;;;;;26.29;44.40;64731.47;5087422;28;20216;-81
2023/06/06 11:34:35;;;;;;;2.33;2.10;;;;;;;26.18;44.42;64713.16;5087023;28;20251;-79
2023/06/06 11:37:03;;;;;;;5.35;2.38;;;;;;;26.28;46.09;64723.13;5091069;28;20231;-79
2023/06/06 11:39:31;;;;;;;2.60;2.50;;;;;;;26.24;44.63;64721.56;5088522;28;20261;-79